sensor_id;sensor_type;location;lat;lon;timestamp;P1;durP1;ratioP1;P2;durP2;ratioP2
6679;SDS011;3376;42.664;23.346;2022-10-22T00:01:37;22.07;;;18.23;;
6679;SDS011;3376;42.664;23.346;2022-10-22T00:04:04;20.20;;;18.07;;
6679;SDS011;3376;42.664;23.346;2022-10-22T00:06:31;19.10;;;17.10;;
6679;SDS011;3376;42.664;23.346;2022-10-22T00:08:58;20.50;;;18.23;;
6679;SDS011;3376;42.664;23.346;2022-10-22T00:11:25;20.47;;;18.27;;
6679;SDS011;3376;42.664;23.346;2022-10-22T00:13:53;30.03;;;18.90;;
6679;SDS011;3376;42.664;23.346;2022-10-22T00:16:20;22.27;;;18.70;;
6679;SDS011;3376;42.664;23.346;2022-10-22T00:18:47;18.87;;;16.97;;
6679;SDS011;3376;42.664;23.346;2022-10-22T00:21:13;25.27;;;19.07;;
6679;SDS011;3376;42.664;23.346;2022-10-22T00:23:40;19.47;;;17.30;;
6679;SDS011;3376;42.664;23.346;2022-10-22T00:26:08;24.60;;;17.60;;
6679;SDS011;3376;42.664;23.346;2022-10-22T00:28:36;20.57;;;17.10;;
6679;SDS011;3376;42.664;23.346;2022-10-22T00:31:05;23.10;;;19.03;;
6679;SDS011;3376;42.664;23.346;2022-10-22T00:33:32;20.97;;;18.10;;
6679;SDS011;3376;42.664;23.346;2022-10-22T00:35:59;24.03;;;17.90;;
6679;SDS011;3376;42.664;23.346;2022-10-22T00:38:26;23.40;;;17.97;;
6679;SDS011;3376;42.664;23.346;2022-10-22T00:40:52;22.17;;;17.57;;
6679;SDS011;3376;42.664;23.346;2022-10-22T00:43:19;20.67;;;17.70;;
6679;SDS011;3376;42.664;23.346;2022-10-22T00:45:46;19.80;;;17.70;;
6679;SDS011;3376;42.664;23.346;2022-10-22T00:48:15;20.17;;;18.13;;
6679;SDS011;3376;42.664;23.346;2022-10-22T00:50:46;20.43;;;17.73;;
6679;SDS011;3376;42.664;23.346;2022-10-22T00:53:20;20.70;;;17.00;;
6679;SDS011;3376;42.664;23.346;2022-10-22T00:55:51;21.60;;;17.77;;
6679;SDS011;3376;42.664;23.346;2022-10-22T00:58:19;19.73;;;17.63;;
6679;SDS011;3376;42.664;23.346;2022-10-22T01:00:49;24.30;;;18.33;;
6679;SDS011;3376;42.664;23.346;2022-10-22T01:03:18;18.87;;;16.67;;
6679;SDS011;3376;42.664;23.346;2022-10-22T01:05:45;23.20;;;17.57;;
6679;SDS011;3376;42.664;23.346;2022-10-22T01:08:21;22.50;;;18.47;;
6679;SDS011;3376;42.664;23.346;2022-10-22T01:10:56;27.40;;;17.30;;
6679;SDS011;3376;42.664;23.346;2022-10-22T01:13:34;18.27;;;16.37;;
6679;SDS011;3376;42.664;23.346;2022-10-22T01:16:13;23.20;;;16.60;;
6679;SDS011;3376;42.664;23.346;2022-10-22T01:18:48;20.00;;;16.53;;
6679;SDS011;3376;42.664;23.346;2022-10-22T01:21:25;18.70;;;16.57;;
6679;SDS011;3376;42.664;23.346;2022-10-22T01:24:10;18.53;;;16.33;;
6679;SDS011;3376;42.664;23.346;2022-10-22T01:27:10;20.97;;;17.70;;
6679;SDS011;3376;42.664;23.346;2022-10-22T01:29:54;21.97;;;17.87;;
6679;SDS011;3376;42.664;23.346;2022-10-22T01:32:24;20.13;;;17.20;;
6679;SDS011;3376;42.664;23.346;2022-10-22T01:34:54;19.40;;;16.80;;
6679;SDS011;3376;42.664;23.346;2022-10-22T01:37:27;18.40;;;16.60;;
6679;SDS011;3376;42.664;23.346;2022-10-22T01:39:55;19.17;;;16.33;;
6679;SDS011;3376;42.664;23.346;2022-10-22T01:42:24;19.30;;;16.37;;
6679;SDS011;3376;42.664;23.346;2022-10-22T01:44:53;18.07;;;16.20;;
6679;SDS011;3376;42.664;23.346;2022-10-22T01:47:21;21.10;;;16.40;;
6679;SDS011;3376;42.664;23.346;2022-10-22T01:50:09;19.17;;;16.00;;
6679;SDS011;3376;42.664;23.346;2022-10-22T01:52:51;19.63;;;16.43;;
6679;SDS011;3376;42.664;23.346;2022-10-22T01:55:39;18.23;;;16.33;;
6679;SDS011;3376;42.664;23.346;2022-10-22T01:58:16;18.27;;;16.43;;
6679;SDS011;3376;42.664;23.346;2022-10-22T02:00:59;19.23;;;15.83;;
6679;SDS011;3376;42.664;23.346;2022-10-22T02:03:33;19.63;;;16.03;;
6679;SDS011;3376;42.664;23.346;2022-10-22T02:06:08;18.20;;;15.53;;
6679;SDS011;3376;42.664;23.346;2022-10-22T02:08:39;17.17;;;15.40;;
6679;SDS011;3376;42.664;23.346;2022-10-22T02:11:07;18.13;;;16.43;;
6679;SDS011;3376;42.664;23.346;2022-10-22T02:13:38;19.37;;;15.87;;
6679;SDS011;3376;42.664;23.346;2022-10-22T02:16:10;17.80;;;15.87;;
6679;SDS011;3376;42.664;23.346;2022-10-22T02:18:41;19.60;;;17.50;;
6679;SDS011;3376;42.664;23.346;2022-10-22T02:21:11;19.60;;;17.20;;
6679;SDS011;3376;42.664;23.346;2022-10-22T02:23:38;16.87;;;15.27;;
6679;SDS011;3376;42.664;23.346;2022-10-22T02:26:06;18.13;;;16.27;;
6679;SDS011;3376;42.664;23.346;2022-10-22T02:28:42;27.20;;;17.40;;
6679;SDS011;3376;42.664;23.346;2022-10-22T02:31:18;17.83;;;16.13;;
6679;SDS011;3376;42.664;23.346;2022-10-22T02:33:49;17.23;;;15.57;;
6679;SDS011;3376;42.664;23.346;2022-10-22T02:36:20;19.50;;;16.50;;
6679;SDS011;3376;42.664;23.346;2022-10-22T02:38:49;17.57;;;15.77;;
6679;SDS011;3376;42.664;23.346;2022-10-22T02:41:16;16.90;;;15.23;;
6679;SDS011;3376;42.664;23.346;2022-10-22T02:43:44;17.23;;;15.37;;
6679;SDS011;3376;42.664;23.346;2022-10-22T02:46:17;17.33;;;15.47;;
6679;SDS011;3376;42.664;23.346;2022-10-22T02:48:44;18.17;;;15.87;;
6679;SDS011;3376;42.664;23.346;2022-10-22T02:51:11;17.27;;;15.57;;
6679;SDS011;3376;42.664;23.346;2022-10-22T02:53:38;16.80;;;15.23;;
6679;SDS011;3376;42.664;23.346;2022-10-22T02:56:05;18.60;;;16.23;;
6679;SDS011;3376;42.664;23.346;2022-10-22T02:58:32;19.17;;;14.80;;
6679;SDS011;3376;42.664;23.346;2022-10-22T03:00:58;18.40;;;15.80;;
6679;SDS011;3376;42.664;23.346;2022-10-22T03:03:27;17.13;;;15.47;;
6679;SDS011;3376;42.664;23.346;2022-10-22T03:05:53;17.93;;;16.00;;
6679;SDS011;3376;42.664;23.346;2022-10-22T03:08:20;19.30;;;16.10;;
6679;SDS011;3376;42.664;23.346;2022-10-22T03:10:47;17.17;;;15.30;;
6679;SDS011;3376;42.664;23.346;2022-10-22T03:13:14;18.00;;;15.97;;
6679;SDS011;3376;42.664;23.346;2022-10-22T03:15:40;22.57;;;15.63;;
6679;SDS011;3376;42.664;23.346;2022-10-22T03:18:07;16.70;;;15.00;;
6679;SDS011;3376;42.664;23.346;2022-10-22T03:20:36;18.17;;;15.93;;
6679;SDS011;3376;42.664;23.346;2022-10-22T03:23:02;17.73;;;15.77;;
6679;SDS011;3376;42.664;23.346;2022-10-22T03:25:30;18.40;;;15.47;;
6679;SDS011;3376;42.664;23.346;2022-10-22T03:27:59;17.93;;;16.03;;
6679;SDS011;3376;42.664;23.346;2022-10-22T03:30:28;18.00;;;15.80;;
6679;SDS011;3376;42.664;23.346;2022-10-22T03:32:55;16.97;;;14.83;;
6679;SDS011;3376;42.664;23.346;2022-10-22T03:35:22;14.67;;;13.17;;
6679;SDS011;3376;42.664;23.346;2022-10-22T03:37:51;16.50;;;14.47;;
6679;SDS011;3376;42.664;23.346;2022-10-22T03:40:18;20.37;;;15.20;;
6679;SDS011;3376;42.664;23.346;2022-10-22T03:42:45;17.83;;;14.63;;
6679;SDS011;3376;42.664;23.346;2022-10-22T03:45:12;17.03;;;15.13;;
6679;SDS011;3376;42.664;23.346;2022-10-22T03:47:39;17.50;;;15.77;;
6679;SDS011;3376;42.664;23.346;2022-10-22T03:50:06;16.90;;;15.10;;
6679;SDS011;3376;42.664;23.346;2022-10-22T03:52:34;17.80;;;15.27;;
6679;SDS011;3376;42.664;23.346;2022-10-22T03:55:04;16.97;;;14.87;;
6679;SDS011;3376;42.664;23.346;2022-10-22T03:57:32;16.90;;;14.30;;
6679;SDS011;3376;42.664;23.346;2022-10-22T03:59:59;18.20;;;16.03;;
6679;SDS011;3376;42.664;23.346;2022-10-22T04:02:27;17.73;;;16.03;;
6679;SDS011;3376;42.664;23.346;2022-10-22T04:04:53;19.77;;;15.33;;
6679;SDS011;3376;42.664;23.346;2022-10-22T04:07:20;16.30;;;14.60;;
6679;SDS011;3376;42.664;23.346;2022-10-22T04:09:47;17.53;;;15.93;;
6679;SDS011;3376;42.664;23.346;2022-10-22T04:12:15;18.43;;;16.03;;
6679;SDS011;3376;42.664;23.346;2022-10-22T04:14:42;29.00;;;16.70;;
6679;SDS011;3376;42.664;23.346;2022-10-22T04:17:09;16.60;;;14.67;;
6679;SDS011;3376;42.664;23.346;2022-10-22T04:19:35;19.13;;;17.30;;
6679;SDS011;3376;42.664;23.346;2022-10-22T04:22:02;17.83;;;15.90;;
6679;SDS011;3376;42.664;23.346;2022-10-22T04:24:29;21.33;;;16.13;;
6679;SDS011;3376;42.664;23.346;2022-10-22T04:26:57;26.93;;;17.20;;
6679;SDS011;3376;42.664;23.346;2022-10-22T04:29:25;18.73;;;16.80;;
6679;SDS011;3376;42.664;23.346;2022-10-22T04:31:52;20.07;;;15.60;;
6679;SDS011;3376;42.664;23.346;2022-10-22T04:34:19;18.23;;;16.43;;
6679;SDS011;3376;42.664;23.346;2022-10-22T04:36:45;19.60;;;15.50;;
6679;SDS011;3376;42.664;23.346;2022-10-22T04:39:13;18.07;;;14.70;;
6679;SDS011;3376;42.664;23.346;2022-10-22T04:41:40;17.90;;;15.00;;
6679;SDS011;3376;42.664;23.346;2022-10-22T04:44:07;16.60;;;15.00;;
6679;SDS011;3376;42.664;23.346;2022-10-22T04:46:35;18.27;;;16.20;;
6679;SDS011;3376;42.664;23.346;2022-10-22T04:49:01;23.10;;;16.80;;
6679;SDS011;3376;42.664;23.346;2022-10-22T04:51:28;21.43;;;16.40;;
6679;SDS011;3376;42.664;23.346;2022-10-22T04:53:55;18.63;;;15.47;;
6679;SDS011;3376;42.664;23.346;2022-10-22T04:56:23;19.43;;;15.93;;
6679;SDS011;3376;42.664;23.346;2022-10-22T04:58:52;19.27;;;17.17;;
6679;SDS011;3376;42.664;23.346;2022-10-22T05:01:20;22.43;;;16.70;;
6679;SDS011;3376;42.664;23.346;2022-10-22T05:03:50;20.43;;;17.40;;
6679;SDS011;3376;42.664;23.346;2022-10-22T05:06:18;20.27;;;17.00;;
6679;SDS011;3376;42.664;23.346;2022-10-22T05:08:47;20.93;;;17.27;;
6679;SDS011;3376;42.664;23.346;2022-10-22T05:11:15;25.40;;;17.87;;
6679;SDS011;3376;42.664;23.346;2022-10-22T05:13:43;26.27;;;16.73;;
6679;SDS011;3376;42.664;23.346;2022-10-22T05:16:10;24.10;;;18.40;;
6679;SDS011;3376;42.664;23.346;2022-10-22T05:18:38;24.83;;;17.33;;
6679;SDS011;3376;42.664;23.346;2022-10-22T05:21:08;18.80;;;16.37;;
6679;SDS011;3376;42.664;23.346;2022-10-22T05:23:36;20.97;;;17.60;;
6679;SDS011;3376;42.664;23.346;2022-10-22T05:26:04;21.40;;;16.53;;
6679;SDS011;3376;42.664;23.346;2022-10-22T05:28:32;20.43;;;16.87;;
6679;SDS011;3376;42.664;23.346;2022-10-22T05:31:00;17.10;;;15.50;;
6679;SDS011;3376;42.664;23.346;2022-10-22T05:33:28;22.97;;;16.70;;
6679;SDS011;3376;42.664;23.346;2022-10-22T05:35:56;20.03;;;16.77;;
6679;SDS011;3376;42.664;23.346;2022-10-22T05:38:25;20.00;;;16.00;;
6679;SDS011;3376;42.664;23.346;2022-10-22T05:40:58;19.03;;;16.97;;
6679;SDS011;3376;42.664;23.346;2022-10-22T05:43:26;19.43;;;17.37;;
6679;SDS011;3376;42.664;23.346;2022-10-22T05:45:52;19.40;;;16.30;;
6679;SDS011;3376;42.664;23.346;2022-10-22T05:48:19;18.70;;;16.77;;
6679;SDS011;3376;42.664;23.346;2022-10-22T05:50:46;33.23;;;18.80;;
6679;SDS011;3376;42.664;23.346;2022-10-22T05:53:15;32.80;;;19.63;;
6679;SDS011;3376;42.664;23.346;2022-10-22T05:55:43;30.57;;;18.57;;
6679;SDS011;3376;42.664;23.346;2022-10-22T05:58:11;36.47;;;21.20;;
6679;SDS011;3376;42.664;23.346;2022-10-22T06:00:38;32.83;;;18.43;;
6679;SDS011;3376;42.664;23.346;2022-10-22T06:03:05;30.13;;;17.53;;
6679;SDS011;3376;42.664;23.346;2022-10-22T06:05:33;18.70;;;16.70;;
6679;SDS011;3376;42.664;23.346;2022-10-22T06:08:01;23.30;;;15.90;;
6679;SDS011;3376;42.664;23.346;2022-10-22T06:10:28;19.03;;;15.63;;
6679;SDS011;3376;42.664;23.346;2022-10-22T06:12:56;23.67;;;17.03;;
6679;SDS011;3376;42.664;23.346;2022-10-22T06:15:25;20.77;;;16.57;;
6679;SDS011;3376;42.664;23.346;2022-10-22T06:17:52;22.80;;;17.60;;
6679;SDS011;3376;42.664;23.346;2022-10-22T06:20:19;21.20;;;15.60;;
6679;SDS011;3376;42.664;23.346;2022-10-22T06:22:45;23.53;;;17.27;;
6679;SDS011;3376;42.664;23.346;2022-10-22T06:25:13;25.27;;;19.10;;
6679;SDS011;3376;42.664;23.346;2022-10-22T06:27:40;24.57;;;17.33;;
6679;SDS011;3376;42.664;23.346;2022-10-22T06:30:09;24.50;;;18.33;;
6679;SDS011;3376;42.664;23.346;2022-10-22T06:32:36;23.37;;;17.20;;
6679;SDS011;3376;42.664;23.346;2022-10-22T06:35:03;19.97;;;17.90;;
6679;SDS011;3376;42.664;23.346;2022-10-22T06:37:30;21.40;;;18.43;;
6679;SDS011;3376;42.664;23.346;2022-10-22T06:39:57;25.27;;;19.37;;
6679;SDS011;3376;42.664;23.346;2022-10-22T06:42:24;20.27;;;17.93;;
6679;SDS011;3376;42.664;23.346;2022-10-22T06:44:51;24.70;;;17.20;;
6679;SDS011;3376;42.664;23.346;2022-10-22T06:47:19;22.50;;;19.37;;
6679;SDS011;3376;42.664;23.346;2022-10-22T06:49:47;20.03;;;17.97;;
6679;SDS011;3376;42.664;23.346;2022-10-22T06:52:14;25.43;;;19.53;;
6679;SDS011;3376;42.664;23.346;2022-10-22T06:54:41;23.33;;;20.83;;
6679;SDS011;3376;42.664;23.346;2022-10-22T06:57:08;23.27;;;20.67;;
6679;SDS011;3376;42.664;23.346;2022-10-22T06:59:35;21.47;;;19.33;;
6679;SDS011;3376;42.664;23.346;2022-10-22T07:02:02;25.33;;;20.17;;
6679;SDS011;3376;42.664;23.346;2022-10-22T07:04:30;24.60;;;20.60;;
6679;SDS011;3376;42.664;23.346;2022-10-22T07:06:56;22.40;;;20.30;;
6679;SDS011;3376;42.664;23.346;2022-10-22T07:09:23;28.30;;;20.27;;
6679;SDS011;3376;42.664;23.346;2022-10-22T07:11:50;23.00;;;20.20;;
6679;SDS011;3376;42.664;23.346;2022-10-22T07:14:17;21.93;;;19.93;;
6679;SDS011;3376;42.664;23.346;2022-10-22T07:16:43;23.93;;;21.57;;
6679;SDS011;3376;42.664;23.346;2022-10-22T07:19:11;24.40;;;20.90;;
6679;SDS011;3376;42.664;23.346;2022-10-22T07:21:39;25.33;;;21.33;;
6679;SDS011;3376;42.664;23.346;2022-10-22T07:24:06;21.90;;;20.10;;
6679;SDS011;3376;42.664;23.346;2022-10-22T07:26:33;22.63;;;20.37;;
6679;SDS011;3376;42.664;23.346;2022-10-22T07:29:01;22.67;;;20.33;;
6679;SDS011;3376;42.664;23.346;2022-10-22T07:31:28;22.00;;;19.83;;
6679;SDS011;3376;42.664;23.346;2022-10-22T07:33:55;23.37;;;20.67;;
6679;SDS011;3376;42.664;23.346;2022-10-22T07:36:23;23.07;;;20.63;;
6679;SDS011;3376;42.664;23.346;2022-10-22T07:38:54;24.97;;;21.00;;
6679;SDS011;3376;42.664;23.346;2022-10-22T07:41:23;24.87;;;21.80;;
6679;SDS011;3376;42.664;23.346;2022-10-22T07:43:50;24.07;;;21.70;;
6679;SDS011;3376;42.664;23.346;2022-10-22T07:46:17;21.83;;;19.63;;
6679;SDS011;3376;42.664;23.346;2022-10-22T07:48:44;22.03;;;19.87;;
6679;SDS011;3376;42.664;23.346;2022-10-22T07:51:10;21.50;;;19.40;;
6679;SDS011;3376;42.664;23.346;2022-10-22T07:53:37;21.80;;;19.60;;
6679;SDS011;3376;42.664;23.346;2022-10-22T07:56:06;21.53;;;19.67;;
6679;SDS011;3376;42.664;23.346;2022-10-22T07:58:33;20.00;;;18.17;;
6679;SDS011;3376;42.664;23.346;2022-10-22T08:01:01;21.07;;;19.10;;
6679;SDS011;3376;42.664;23.346;2022-10-22T08:03:30;25.20;;;19.23;;
6679;SDS011;3376;42.664;23.346;2022-10-22T08:05:57;25.40;;;19.80;;
6679;SDS011;3376;42.664;23.346;2022-10-22T08:08:25;25.40;;;21.50;;
6679;SDS011;3376;42.664;23.346;2022-10-22T08:10:54;23.77;;;20.63;;
6679;SDS011;3376;42.664;23.346;2022-10-22T08:13:24;24.23;;;21.33;;
6679;SDS011;3376;42.664;23.346;2022-10-22T08:15:51;31.30;;;23.57;;
6679;SDS011;3376;42.664;23.346;2022-10-22T08:18:18;25.57;;;23.07;;
6679;SDS011;3376;42.664;23.346;2022-10-22T08:20:45;29.20;;;23.73;;
6679;SDS011;3376;42.664;23.346;2022-10-22T08:23:12;23.43;;;21.53;;
6679;SDS011;3376;42.664;23.346;2022-10-22T08:25:38;23.27;;;20.67;;
6679;SDS011;3376;42.664;23.346;2022-10-22T08:28:05;23.30;;;21.13;;
6679;SDS011;3376;42.664;23.346;2022-10-22T08:30:33;22.40;;;20.33;;
6679;SDS011;3376;42.664;23.346;2022-10-22T08:33:02;20.20;;;18.50;;
6679;SDS011;3376;42.664;23.346;2022-10-22T08:35:30;21.87;;;19.87;;
6679;SDS011;3376;42.664;23.346;2022-10-22T08:37:56;21.77;;;19.73;;
6679;SDS011;3376;42.664;23.346;2022-10-22T08:40:25;23.13;;;20.63;;
6679;SDS011;3376;42.664;23.346;2022-10-22T08:43:01;28.60;;;21.57;;
6679;SDS011;3376;42.664;23.346;2022-10-22T08:45:47;23.80;;;20.33;;
6679;SDS011;3376;42.664;23.346;2022-10-22T08:48:28;20.37;;;18.77;;
6679;SDS011;3376;42.664;23.346;2022-10-22T08:51:06;22.37;;;20.33;;
6679;SDS011;3376;42.664;23.346;2022-10-22T08:53:38;24.23;;;20.90;;
6679;SDS011;3376;42.664;23.346;2022-10-22T08:56:10;26.13;;;20.97;;
6679;SDS011;3376;42.664;23.346;2022-10-22T08:58:41;25.63;;;23.03;;
6679;SDS011;3376;42.664;23.346;2022-10-22T09:01:16;24.47;;;21.73;;
6679;SDS011;3376;42.664;23.346;2022-10-22T09:03:48;21.90;;;19.63;;
6679;SDS011;3376;42.664;23.346;2022-10-22T09:06:22;24.67;;;21.10;;
6679;SDS011;3376;42.664;23.346;2022-10-22T09:08:51;23.07;;;20.80;;
6679;SDS011;3376;42.664;23.346;2022-10-22T09:11:22;21.87;;;19.87;;
6679;SDS011;3376;42.664;23.346;2022-10-22T09:13:51;22.37;;;19.83;;
6679;SDS011;3376;42.664;23.346;2022-10-22T09:16:21;20.90;;;18.87;;
6679;SDS011;3376;42.664;23.346;2022-10-22T09:18:59;20.70;;;18.67;;
6679;SDS011;3376;42.664;23.346;2022-10-22T09:21:37;20.53;;;18.93;;
6679;SDS011;3376;42.664;23.346;2022-10-22T09:24:12;23.77;;;19.83;;
6679;SDS011;3376;42.664;23.346;2022-10-22T09:26:42;18.57;;;16.97;;
6679;SDS011;3376;42.664;23.346;2022-10-22T09:29:12;19.83;;;18.10;;
6679;SDS011;3376;42.664;23.346;2022-10-22T09:31:46;19.73;;;17.93;;
6679;SDS011;3376;42.664;23.346;2022-10-22T09:34:13;20.13;;;18.13;;
6679;SDS011;3376;42.664;23.346;2022-10-22T09:36:40;18.63;;;16.90;;
6679;SDS011;3376;42.664;23.346;2022-10-22T09:39:20;19.87;;;18.07;;
6679;SDS011;3376;42.664;23.346;2022-10-22T09:41:49;18.70;;;17.20;;
6679;SDS011;3376;42.664;23.346;2022-10-22T09:44:16;37.57;;;17.87;;
6679;SDS011;3376;42.664;23.346;2022-10-22T09:46:43;30.43;;;17.37;;
6679;SDS011;3376;42.664;23.346;2022-10-22T09:49:12;19.43;;;17.40;;
6679;SDS011;3376;42.664;23.346;2022-10-22T09:51:47;19.30;;;17.63;;
6679;SDS011;3376;42.664;23.346;2022-10-22T09:54:17;20.40;;;18.53;;
6679;SDS011;3376;42.664;23.346;2022-10-22T09:56:47;19.80;;;17.03;;
6679;SDS011;3376;42.664;23.346;2022-10-22T09:59:18;18.17;;;16.67;;
6679;SDS011;3376;42.664;23.346;2022-10-22T10:01:56;18.27;;;16.43;;
6679;SDS011;3376;42.664;23.346;2022-10-22T10:04:26;17.93;;;16.30;;
6679;SDS011;3376;42.664;23.346;2022-10-22T10:06:54;17.30;;;15.77;;
6679;SDS011;3376;42.664;23.346;2022-10-22T10:09:22;18.57;;;17.07;;
6679;SDS011;3376;42.664;23.346;2022-10-22T10:11:52;16.40;;;15.03;;
6679;SDS011;3376;42.664;23.346;2022-10-22T10:14:27;17.23;;;15.77;;
6679;SDS011;3376;42.664;23.346;2022-10-22T10:17:02;19.13;;;15.40;;
6679;SDS011;3376;42.664;23.346;2022-10-22T10:19:38;17.57;;;15.77;;
6679;SDS011;3376;42.664;23.346;2022-10-22T10:22:19;16.47;;;15.07;;
6679;SDS011;3376;42.664;23.346;2022-10-22T10:25:03;23.27;;;16.40;;
6679;SDS011;3376;42.664;23.346;2022-10-22T10:27:42;15.93;;;14.50;;
6679;SDS011;3376;42.664;23.346;2022-10-22T10:30:13;16.80;;;15.23;;
6679;SDS011;3376;42.664;23.346;2022-10-22T10:32:47;16.43;;;15.23;;
6679;SDS011;3376;42.664;23.346;2022-10-22T10:35:28;16.30;;;15.10;;
6679;SDS011;3376;42.664;23.346;2022-10-22T10:38:06;17.43;;;15.90;;
6679;SDS011;3376;42.664;23.346;2022-10-22T10:40:44;16.87;;;15.23;;
6679;SDS011;3376;42.664;23.346;2022-10-22T10:43:16;15.80;;;14.60;;
6679;SDS011;3376;42.664;23.346;2022-10-22T10:45:53;15.07;;;13.83;;
6679;SDS011;3376;42.664;23.346;2022-10-22T10:48:40;17.27;;;14.97;;
6679;SDS011;3376;42.664;23.346;2022-10-22T10:51:20;29.87;;;25.20;;
6679;SDS011;3376;42.664;23.346;2022-10-22T10:54:12;26.10;;;19.93;;
6679;SDS011;3376;42.664;23.346;2022-10-22T10:56:48;17.03;;;15.53;;
6679;SDS011;3376;42.664;23.346;2022-10-22T10:59:33;18.73;;;16.37;;
6679;SDS011;3376;42.664;23.346;2022-10-22T11:02:17;17.77;;;16.03;;
6679;SDS011;3376;42.664;23.346;2022-10-22T11:05:09;16.53;;;15.03;;
6679;SDS011;3376;42.664;23.346;2022-10-22T11:07:49;16.00;;;14.67;;
6679;SDS011;3376;42.664;23.346;2022-10-22T11:10:24;18.20;;;15.85;;
6679;SDS011;3376;42.664;23.346;2022-10-22T11:12:56;15.60;;;14.17;;
6679;SDS011;3376;42.664;23.346;2022-10-22T11:15:30;15.70;;;14.37;;
6679;SDS011;3376;42.664;23.346;2022-10-22T11:18:01;15.35;;;13.82;;
6679;SDS011;3376;42.664;23.346;2022-10-22T11:20:38;15.88;;;13.65;;
6679;SDS011;3376;42.664;23.346;2022-10-22T11:23:13;15.18;;;13.82;;
6679;SDS011;3376;42.664;23.346;2022-10-22T11:25:45;14.95;;;13.50;;
6679;SDS011;3376;42.664;23.346;2022-10-22T11:28:14;14.73;;;13.52;;
6679;SDS011;3376;42.664;23.346;2022-10-22T11:30:47;15.13;;;13.38;;
6679;SDS011;3376;42.664;23.346;2022-10-22T11:33:17;16.77;;;14.75;;
6679;SDS011;3376;42.664;23.346;2022-10-22T11:35:47;17.73;;;14.00;;
6679;SDS011;3376;42.664;23.346;2022-10-22T11:38:17;14.38;;;12.90;;
6679;SDS011;3376;42.664;23.346;2022-10-22T11:40:49;14.95;;;13.43;;
6679;SDS011;3376;42.664;23.346;2022-10-22T11:43:26;13.93;;;12.60;;
6679;SDS011;3376;42.664;23.346;2022-10-22T11:46:02;13.88;;;12.63;;
6679;SDS011;3376;42.664;23.346;2022-10-22T11:48:59;13.45;;;12.20;;
6679;SDS011;3376;42.664;23.346;2022-10-22T11:51:31;12.23;;;11.52;;
6679;SDS011;3376;42.664;23.346;2022-10-22T11:54:02;13.48;;;12.10;;
6679;SDS011;3376;42.664;23.346;2022-10-22T11:56:50;17.02;;;12.48;;
6679;SDS011;3376;42.664;23.346;2022-10-22T11:59:32;12.52;;;11.43;;
6679;SDS011;3376;42.664;23.346;2022-10-22T12:02:19;17.15;;;12.57;;
6679;SDS011;3376;42.664;23.346;2022-10-22T12:04:49;12.45;;;11.32;;
6679;SDS011;3376;42.664;23.346;2022-10-22T12:07:30;11.98;;;10.90;;
6679;SDS011;3376;42.664;23.346;2022-10-22T12:10:00;16.40;;;11.95;;
6679;SDS011;3376;42.664;23.346;2022-10-22T12:12:33;16.42;;;11.05;;
6679;SDS011;3376;42.664;23.346;2022-10-22T12:15:19;12.35;;;11.23;;
6679;SDS011;3376;42.664;23.346;2022-10-22T12:17:48;11.60;;;10.50;;
6679;SDS011;3376;42.664;23.346;2022-10-22T12:20:15;12.85;;;11.65;;
6679;SDS011;3376;42.664;23.346;2022-10-22T12:22:42;11.60;;;10.70;;
6679;SDS011;3376;42.664;23.346;2022-10-22T12:25:16;11.13;;;10.17;;
6679;SDS011;3376;42.664;23.346;2022-10-22T12:27:48;11.53;;;10.53;;
6679;SDS011;3376;42.664;23.346;2022-10-22T12:30:18;13.53;;;12.17;;
6679;SDS011;3376;42.664;23.346;2022-10-22T12:32:50;11.23;;;9.93;;
6679;SDS011;3376;42.664;23.346;2022-10-22T12:35:18;12.43;;;11.17;;
6679;SDS011;3376;42.664;23.346;2022-10-22T12:37:48;15.33;;;10.43;;
6679;SDS011;3376;42.664;23.346;2022-10-22T12:40:18;10.73;;;9.87;;
6679;SDS011;3376;42.664;23.346;2022-10-22T12:42:51;13.47;;;9.83;;
6679;SDS011;3376;42.664;23.346;2022-10-22T12:45:21;10.60;;;9.80;;
6679;SDS011;3376;42.664;23.346;2022-10-22T12:47:49;14.13;;;10.23;;
6679;SDS011;3376;42.664;23.346;2022-10-22T12:50:18;10.67;;;9.77;;
6679;SDS011;3376;42.664;23.346;2022-10-22T12:52:47;11.33;;;10.37;;
6679;SDS011;3376;42.664;23.346;2022-10-22T12:55:15;10.23;;;9.33;;
6679;SDS011;3376;42.664;23.346;2022-10-22T12:57:46;11.20;;;10.00;;
6679;SDS011;3376;42.664;23.346;2022-10-22T13:00:20;10.20;;;9.17;;
6679;SDS011;3376;42.664;23.346;2022-10-22T13:02:50;16.13;;;9.87;;
6679;SDS011;3376;42.664;23.346;2022-10-22T13:05:22;10.43;;;9.23;;
6679;SDS011;3376;42.664;23.346;2022-10-22T13:07:52;9.40;;;8.90;;
6679;SDS011;3376;42.664;23.346;2022-10-22T13:10:30;12.13;;;9.10;;
6679;SDS011;3376;42.664;23.346;2022-10-22T13:12:59;9.93;;;8.97;;
6679;SDS011;3376;42.664;23.346;2022-10-22T13:15:34;9.90;;;8.50;;
6679;SDS011;3376;42.664;23.346;2022-10-22T13:18:05;9.97;;;8.87;;
6679;SDS011;3376;42.664;23.346;2022-10-22T13:20:49;10.77;;;9.63;;
6679;SDS011;3376;42.664;23.346;2022-10-22T13:23:17;9.67;;;8.70;;
6679;SDS011;3376;42.664;23.346;2022-10-22T13:25:55;9.83;;;9.13;;
6679;SDS011;3376;42.664;23.346;2022-10-22T13:28:24;10.50;;;9.40;;
6679;SDS011;3376;42.664;23.346;2022-10-22T13:30:52;10.53;;;9.43;;
6679;SDS011;3376;42.664;23.346;2022-10-22T13:33:22;9.90;;;8.33;;
6679;SDS011;3376;42.664;23.346;2022-10-22T13:35:51;9.83;;;9.13;;
6679;SDS011;3376;42.664;23.346;2022-10-22T13:38:19;10.30;;;8.60;;
6679;SDS011;3376;42.664;23.346;2022-10-22T13:40:47;9.20;;;8.47;;
6679;SDS011;3376;42.664;23.346;2022-10-22T13:43:16;10.10;;;9.27;;
6679;SDS011;3376;42.664;23.346;2022-10-22T13:45:45;11.13;;;10.13;;
6679;SDS011;3376;42.664;23.346;2022-10-22T13:48:13;10.10;;;9.47;;
6679;SDS011;3376;42.664;23.346;2022-10-22T13:50:43;11.57;;;8.83;;
6679;SDS011;3376;42.664;23.346;2022-10-22T13:53:12;13.27;;;9.80;;
6679;SDS011;3376;42.664;23.346;2022-10-22T13:55:42;12.10;;;9.93;;
6679;SDS011;3376;42.664;23.346;2022-10-22T13:58:10;10.33;;;9.63;;
6679;SDS011;3376;42.664;23.346;2022-10-22T14:00:40;10.67;;;9.63;;
6679;SDS011;3376;42.664;23.346;2022-10-22T14:03:11;9.60;;;9.03;;
6679;SDS011;3376;42.664;23.346;2022-10-22T14:05:40;9.07;;;8.20;;
6679;SDS011;3376;42.664;23.346;2022-10-22T14:08:08;10.23;;;9.07;;
6679;SDS011;3376;42.664;23.346;2022-10-22T14:10:37;10.30;;;9.63;;
6679;SDS011;3376;42.664;23.346;2022-10-22T14:13:04;18.70;;;9.60;;
6679;SDS011;3376;42.664;23.346;2022-10-22T14:15:32;10.67;;;9.57;;
6679;SDS011;3376;42.664;23.346;2022-10-22T14:17:59;10.10;;;9.17;;
6679;SDS011;3376;42.664;23.346;2022-10-22T14:20:28;9.50;;;9.00;;
6679;SDS011;3376;42.664;23.346;2022-10-22T14:22:59;9.47;;;8.60;;
6679;SDS011;3376;42.664;23.346;2022-10-22T14:25:36;14.03;;;9.40;;
6679;SDS011;3376;42.664;23.346;2022-10-22T14:28:03;9.13;;;8.53;;
6679;SDS011;3376;42.664;23.346;2022-10-22T14:30:30;9.53;;;8.60;;
6679;SDS011;3376;42.664;23.346;2022-10-22T14:32:57;10.20;;;8.93;;
6679;SDS011;3376;42.664;23.346;2022-10-22T14:35:43;11.67;;;9.83;;
6679;SDS011;3376;42.664;23.346;2022-10-22T14:38:10;10.43;;;9.50;;
6679;SDS011;3376;42.664;23.346;2022-10-22T14:40:37;11.33;;;9.40;;
6679;SDS011;3376;42.664;23.346;2022-10-22T14:43:08;12.97;;;9.80;;
6679;SDS011;3376;42.664;23.346;2022-10-22T14:45:36;14.17;;;9.80;;
6679;SDS011;3376;42.664;23.346;2022-10-22T14:48:03;10.97;;;9.97;;
6679;SDS011;3376;42.664;23.346;2022-10-22T14:50:30;14.87;;;12.27;;
6679;SDS011;3376;42.664;23.346;2022-10-22T14:52:58;12.03;;;9.80;;
6679;SDS011;3376;42.664;23.346;2022-10-22T14:55:25;10.60;;;9.83;;